Gandsi, Mississippi
Current Conditions -  °F | °C
As of 10:35 PM on Thursday 18 Dec 2014 (Local Time) from KPIB Reporting Station
Overcast Overcast  
Wind Chill: 48°   Ceiling: 1100
Heat Index: 48°   Visibility: 5mi
Dew Point: 46°   Wind: 3mph
Humidity: 93%   Direction: 60°ENE
Pressure: 30.19"   Gusts: NA
Location:  31.5166°N, 89.4877°W
Report Text: KPIB 190435Z AUTO 06003KT 5SM OVC011 09/08 A3019 RMK AO1
Loading
Personal Weather Stations






























Interactive Weather Map New forecast layout! Learn more

10-Day Weather Forecast

Advertisements
Track Severe Weather on mobile